createdAt,value
2018-08-25T00:04:49.607Z,14.87
2018-08-25T00:09:59.023Z,14.88
2018-08-25T00:15:08.089Z,14.87
2018-08-25T00:20:16.901Z,14.86
2018-08-25T00:25:26.462Z,14.92
2018-08-25T00:30:35.766Z,14.78
2018-08-25T00:35:44.975Z,14.59
2018-08-25T00:40:54.370Z,14.44
2018-08-25T00:46:03.968Z,14.25
2018-08-25T00:51:13.248Z,14.00
2018-08-25T00:56:22.479Z,13.84
2018-08-25T01:01:31.208Z,13.60
2018-08-25T01:06:40.110Z,13.38
2018-08-25T01:11:49.300Z,13.23
2018-08-25T01:16:58.606Z,12.94
2018-08-25T01:22:07.556Z,13.02
2018-08-25T01:27:16.571Z,12.83
2018-08-25T01:32:25.462Z,12.70
2018-08-25T01:37:34.914Z,12.61
2018-08-25T01:42:44.176Z,12.60
2018-08-25T01:47:53.668Z,12.65
2018-08-25T01:53:02.781Z,12.68
2018-08-25T01:58:12.408Z,12.73
2018-08-25T02:03:21.622Z,12.67
2018-08-25T02:08:30.988Z,12.54
2018-08-25T02:13:40.798Z,12.29
2018-08-25T02:18:49.688Z,12.12
2018-08-25T02:23:58.948Z,12.13
2018-08-25T02:29:07.705Z,11.99
2018-08-25T02:34:16.778Z,11.98
2018-08-25T02:39:25.711Z,12.10
2018-08-25T02:44:35.051Z,12.18
2018-08-25T02:49:44.363Z,12.20
2018-08-25T02:54:53.928Z,12.21
2018-08-25T03:00:03.206Z,12.37
2018-08-25T03:05:12.381Z,12.54
2018-08-25T03:10:21.621Z,12.47
2018-08-25T03:15:30.688Z,12.35
2018-08-25T03:20:41.060Z,12.38
2018-08-25T03:25:50.319Z,12.41
2018-08-25T03:30:59.686Z,12.42
2018-08-25T03:36:09.183Z,12.36
2018-08-25T03:41:18.373Z,12.29
2018-08-25T03:46:27.646Z,12.26
2018-08-25T03:51:36.758Z,12.28
2018-08-25T03:56:45.862Z,12.43
2018-08-25T04:01:55.008Z,12.55
2018-08-25T04:07:04.918Z,12.52
2018-08-25T04:12:13.731Z,12.54
2018-08-25T04:17:22.791Z,12.55
2018-08-25T04:22:31.873Z,12.57
2018-08-25T04:27:41.201Z,12.53
2018-08-25T04:32:50.331Z,12.52
2018-08-25T04:37:59.786Z,12.57
2018-08-25T04:43:09.203Z,12.57
2018-08-25T04:48:18.237Z,12.76
2018-08-25T04:53:27.541Z,12.98
2018-08-25T04:58:36.749Z,13.15
2018-08-25T05:03:45.911Z,13.25
2018-08-25T05:08:55.081Z,13.35
2018-08-25T05:14:04.228Z,13.48
2018-08-25T05:19:13.201Z,13.72
2018-08-25T05:24:22.545Z,13.96
2018-08-25T05:29:31.861Z,14.11
2018-08-25T05:34:41.031Z,14.43
2018-08-25T05:39:50.299Z,14.69
2018-08-25T05:44:59.248Z,15.04
2018-08-25T05:50:08.917Z,15.54
2018-08-25T05:55:17.860Z,15.97
2018-08-25T06:00:28.079Z,16.40
2018-08-25T06:05:37.699Z,16.49
2018-08-25T06:10:46.688Z,16.43
2018-08-25T06:15:57.938Z,16.61
2018-08-25T06:21:07.539Z,16.99
2018-08-25T06:26:16.154Z,17.05
2018-08-25T06:31:25.580Z,17.58
2018-08-25T06:36:34.871Z,18.41
2018-08-25T06:41:43.996Z,18.68
2018-08-25T06:46:53.434Z,18.89
2018-08-25T06:52:03.082Z,19.81
2018-08-25T06:57:11.900Z,20.37
2018-08-25T07:02:20.924Z,20.68
2018-08-25T07:07:31.195Z,20.53
2018-08-25T07:12:40.652Z,20.52
2018-08-25T07:17:50.046Z,20.06
2018-08-25T07:22:58.797Z,19.83
2018-08-25T07:28:08.367Z,19.77
2018-08-25T07:33:17.207Z,20.05
2018-08-25T07:38:26.698Z,20.47
2018-08-25T07:43:36.010Z,20.84
2018-08-25T07:48:45.814Z,20.87
2018-08-25T07:53:54.819Z,20.90
2018-08-25T07:59:04.084Z,21.47
2018-08-25T08:04:13.425Z,21.70
2018-08-25T08:09:22.824Z,21.47
2018-08-25T08:14:32.008Z,21.57
2018-08-25T08:19:41.321Z,21.94
2018-08-25T08:24:50.499Z,21.95
2018-08-25T08:29:59.532Z,21.84
2018-08-25T08:35:10.412Z,21.93
2018-08-25T08:40:20.117Z,22.23
2018-08-25T08:45:28.986Z,21.96
2018-08-25T08:50:38.481Z,22.56
2018-08-25T08:55:48.228Z,22.95
2018-08-25T09:00:56.930Z,23.08
2018-08-25T09:06:06.410Z,23.13
2018-08-25T09:11:15.854Z,22.92
2018-08-25T09:16:25.163Z,24.61
2018-08-25T09:21:34.766Z,26.79
2018-08-25T09:26:44.247Z,28.28
2018-08-25T09:31:53.289Z,28.45
2018-08-25T09:37:03.627Z,29.20
2018-08-25T09:42:13.334Z,29.55
2018-08-25T09:47:22.585Z,28.84
2018-08-25T09:52:31.630Z,27.18
2018-08-25T09:57:41.440Z,26.54
2018-08-25T10:02:50.246Z,24.92
2018-08-25T10:07:59.553Z,24.36
2018-08-25T10:13:08.849Z,23.55
2018-08-25T10:18:17.666Z,23.53
2018-08-25T10:23:26.604Z,23.74
2018-08-25T10:28:35.699Z,23.22
2018-08-25T10:33:44.761Z,23.82
2018-08-25T10:38:53.474Z,24.15
2018-08-25T10:44:03.035Z,23.38
2018-08-25T10:49:12.075Z,22.76
2018-08-25T10:54:22.086Z,22.50
2018-08-25T10:59:30.865Z,23.50
2018-08-25T11:04:40.097Z,25.14
2018-08-25T11:09:49.838Z,25.29
2018-08-25T11:14:59.409Z,26.13
2018-08-25T11:20:08.835Z,25.40
2018-08-25T11:25:18.409Z,25.39
2018-08-25T11:30:27.716Z,26.04
2018-08-25T11:35:36.681Z,25.72
2018-08-25T11:40:45.618Z,24.75
2018-08-25T11:45:55.402Z,23.88
2018-08-25T11:51:07.016Z,23.98
2018-08-25T11:56:16.521Z,23.90
2018-08-25T12:01:25.906Z,23.82
2018-08-25T12:06:35.002Z,22.83
2018-08-25T12:11:44.289Z,22.20
2018-08-25T12:16:53.308Z,21.67
2018-08-25T12:22:02.765Z,21.58
2018-08-25T12:27:12.080Z,20.95
2018-08-25T12:32:21.430Z,19.62
2018-08-25T12:37:30.633Z,19.27
2018-08-25T12:42:39.910Z,18.69
2018-08-25T12:47:48.862Z,18.30
2018-08-25T12:52:57.665Z,18.33
2018-08-25T12:58:06.945Z,17.99
2018-08-25T13:03:16.499Z,17.98
2018-08-25T13:08:25.428Z,17.78
2018-08-25T13:13:34.529Z,17.49
2018-08-25T13:18:44.183Z,17.44
2018-08-25T13:23:53.711Z,17.77
2018-08-25T13:29:02.818Z,18.07
2018-08-25T13:34:12.166Z,18.61
2018-08-25T13:39:21.437Z,19.00
2018-08-25T13:44:31.647Z,19.62
2018-08-25T13:49:41.275Z,20.28
2018-08-25T13:54:50.825Z,19.98
2018-08-25T14:00:00.235Z,19.95
2018-08-25T14:05:10.674Z,19.95
2018-08-25T14:10:19.960Z,20.08
2018-08-25T14:15:29.082Z,21.16
2018-08-25T14:20:38.149Z,21.71
2018-08-25T14:25:47.492Z,20.87
2018-08-25T14:30:56.162Z,19.63
2018-08-25T14:36:11.459Z,19.78
2018-08-25T14:41:20.671Z,19.99
2018-08-25T14:46:29.659Z,19.91
2018-08-25T14:51:38.904Z,20.18
2018-08-25T14:56:47.839Z,21.36
2018-08-25T15:01:57.084Z,21.21
2018-08-25T15:07:06.281Z,21.46
2018-08-25T15:12:15.651Z,21.68
2018-08-25T15:17:24.665Z,21.16
2018-08-25T15:22:34.741Z,20.84
2018-08-25T15:27:43.892Z,21.25
2018-08-25T15:32:53.590Z,21.82
2018-08-25T15:38:03.072Z,20.78
2018-08-25T15:43:12.070Z,21.11
2018-08-25T15:48:21.899Z,20.35
2018-08-25T15:53:31.508Z,19.48
2018-08-25T15:58:40.932Z,19.12
2018-08-25T16:03:50.425Z,18.75
2018-08-25T16:08:59.702Z,18.72
2018-08-25T16:14:08.967Z,18.54
2018-08-25T16:19:17.924Z,18.36
2018-08-25T16:24:26.812Z,18.52
2018-08-25T16:29:35.686Z,18.45
2018-08-25T16:34:45.044Z,18.95
2018-08-25T16:39:54.348Z,19.09
2018-08-25T16:45:04.095Z,19.46
2018-08-25T16:50:13.376Z,18.57
2018-08-25T16:55:22.834Z,17.76
2018-08-25T17:00:31.961Z,17.42
2018-08-25T17:05:41.179Z,17.66
2018-08-25T17:10:52.837Z,17.75
2018-08-25T17:16:02.278Z,17.60
2018-08-25T17:21:11.582Z,17.31
2018-08-25T17:26:21.359Z,17.38
2018-08-25T17:31:30.909Z,17.20
2018-08-25T17:36:39.777Z,17.29
2018-08-25T17:41:49.566Z,17.21
2018-08-25T17:46:58.620Z,16.96
2018-08-25T17:52:07.639Z,16.62
2018-08-25T17:57:16.766Z,16.20
2018-08-25T18:02:25.901Z,16.04
2018-08-25T18:07:34.921Z,15.67
2018-08-25T18:12:44.413Z,15.38
2018-08-25T18:17:53.199Z,15.04
2018-08-25T18:23:02.585Z,14.80
2018-08-25T18:28:11.522Z,14.85
2018-08-25T18:33:20.934Z,14.78
2018-08-25T18:38:30.436Z,14.63
2018-08-25T18:43:39.692Z,14.64
2018-08-25T18:48:48.880Z,14.70
2018-08-25T18:53:57.985Z,14.80
2018-08-25T18:59:07.137Z,14.53
2018-08-25T19:04:16.732Z,14.49
2018-08-25T19:09:25.756Z,14.45
2018-08-25T19:14:34.776Z,14.21
2018-08-25T19:19:43.710Z,14.24
2018-08-25T19:24:53.097Z,14.02
2018-08-25T19:30:02.229Z,13.86
2018-08-25T19:35:11.321Z,13.73
2018-08-25T19:40:20.813Z,13.47
2018-08-25T19:45:31.481Z,13.34
2018-08-25T19:50:41.258Z,13.21
2018-08-25T19:55:50.130Z,13.08
2018-08-25T20:00:59.687Z,12.92
2018-08-25T20:06:09.278Z,12.80
2018-08-25T20:11:18.817Z,12.72
2018-08-25T20:16:27.841Z,12.31
2018-08-25T20:21:36.988Z,12.22
2018-08-25T20:26:46.134Z,11.97
2018-08-25T20:31:57.854Z,11.67
2018-08-25T20:37:08.949Z,11.58
2018-08-25T20:42:20.236Z,11.65
2018-08-25T20:47:31.101Z,11.84
2018-08-25T20:52:44.282Z,11.95
2018-08-25T20:57:54.380Z,12.08
2018-08-25T21:03:05.283Z,12.19
2018-08-25T21:08:16.912Z,12.01
2018-08-25T21:13:27.133Z,12.11
2018-08-25T21:18:36.098Z,11.84
2018-08-25T21:23:45.276Z,11.63
2018-08-25T21:28:54.686Z,11.42
2018-08-25T21:34:04.012Z,11.40
2018-08-25T21:39:13.281Z,11.25
2018-08-25T21:44:22.138Z,11.17
2018-08-25T21:49:31.674Z,11.10
2018-08-25T21:54:41.072Z,11.04
2018-08-25T21:59:50.418Z,10.79
2018-08-25T22:04:59.565Z,10.54
2018-08-25T22:10:08.572Z,10.23
2018-08-25T22:15:17.963Z,9.99
2018-08-25T22:20:26.603Z,9.82
2018-08-25T22:25:35.850Z,9.68
2018-08-25T22:30:45.156Z,9.70
2018-08-25T22:35:53.860Z,9.64
2018-08-25T22:41:02.803Z,9.61
2018-08-25T22:46:12.208Z,9.32
2018-08-25T22:51:21.410Z,9.35
2018-08-25T22:56:30.098Z,9.44
2018-08-25T23:01:39.401Z,9.33
2018-08-25T23:06:48.491Z,9.23
2018-08-25T23:11:57.252Z,9.20
2018-08-25T23:17:06.164Z,9.25
2018-08-25T23:22:14.909Z,9.30
2018-08-25T23:27:23.674Z,9.24
2018-08-25T23:32:32.657Z,9.26
2018-08-25T23:37:42.234Z,9.25
2018-08-25T23:42:51.547Z,9.10
2018-08-25T23:48:00.302Z,9.15
2018-08-25T23:53:09.227Z,9.18
2018-08-25T23:58:19.849Z,9.02
